Time;durP1;ratioP1;P1;durP2;ratioP2;P2;SDS_P1;SDS_P2;PMS_P1;PMS_P2;Temp;Humidity;BMP_temperature;BMP_pressure;BME280_temperature;BME280_humidity;BME280_pressure;Samples;Min_cycle;Max_cycle;Signal;HPM_P1;HPM_P2
2022/08/24 00:01:26;;;;;;;8.13;2.87;;;;;;;18.77;100.00;100278.96;1372861;89;22092;-79
2022/08/24 00:03:56;;;;;;;4.67;2.37;;;;;;;18.74;100.00;100282.88;1428735;88;21432;-80
2022/08/24 00:06:23;;;;;;;6.40;3.00;;;;;;;18.70;100.00;100269.52;1447986;88;21374;-80
2022/08/24 00:08:53;;;;;;;6.47;2.37;;;;;;;18.70;100.00;100276.22;1443878;90;21491;-79
2022/08/24 00:11:19;;;;;;;4.65;2.40;;;;;;;18.69;100.00;100282.10;1398812;92;21394;-79
2022/08/24 00:13:46;;;;;;;18.77;3.37;;;;;;;18.71;100.00;100277.89;1447398;88;21409;-81
2022/08/24 00:16:14;;;;;;;7.50;2.37;;;;;;;18.69;100.00;100277.27;1436046;88;21386;-80
2022/08/24 00:18:40;;;;;;;8.30;2.63;;;;;;;18.68;100.00;100271.60;1436898;88;21398;-78
2022/08/24 00:21:07;;;;;;;5.93;2.33;;;;;;;18.71;100.00;100264.48;1434629;90;21563;-77
2022/08/24 00:23:35;;;;;;;3.10;2.10;;;;;;;18.75;100.00;100271.11;1438630;89;21366;-80
2022/08/24 00:26:01;;;;;;;8.43;2.90;;;;;;;18.77;100.00;100274.42;1439571;90;21417;-78
2022/08/24 00:28:28;;;;;;;4.63;2.43;;;;;;;18.74;100.00;100277.52;1443179;89;21469;-78
2022/08/24 00:30:54;;;;;;;5.90;2.60;;;;;;;18.74;100.00;100274.02;1437505;88;21513;-79
2022/08/24 00:33:20;;;;;;;4.23;2.40;;;;;;;18.74;100.00;100269.47;1451229;88;22049;-77
2022/08/24 00:35:46;;;;;;;4.10;2.50;;;;;;;18.78;100.00;100278.74;1445347;88;21421;-77
2022/08/24 00:38:13;;;;;;;9.73;2.63;;;;;;;18.83;100.00;100280.30;1447395;88;22394;-79
2022/08/24 00:40:44;;;;;;;8.07;2.60;;;;;;;18.84;100.00;100283.28;1443019;88;21432;-79
2022/08/24 00:43:10;;;;;;;6.23;2.57;;;;;;;18.82;100.00;100290.72;1439946;90;21522;-79
2022/08/24 00:45:50;;;;;;;7.43;2.30;;;;;;;18.82;100.00;100284.55;1440381;90;21381;-79
2022/08/24 00:48:21;;;;;;;7.85;2.33;;;;;;;18.83;100.00;100284.32;1442388;88;21551;-79
2022/08/24 00:51:02;;;;;;;5.83;3.17;;;;;;;18.86;100.00;100293.30;1430416;89;22301;-77
2022/08/24 00:53:42;;;;;;;10.77;2.60;;;;;;;18.86;100.00;100298.66;1436813;90;21572;-80
2022/08/24 00:56:13;;;;;;;6.22;2.72;;;;;;;18.81;100.00;100304.32;1425826;90;21550;-79
2022/08/24 00:58:47;;;;;;;8.10;2.70;;;;;;;18.81;100.00;100303.80;1440543;89;21384;-78
2022/08/24 01:01:14;;;;;;;6.33;2.87;;;;;;;18.77;100.00;100296.39;1366662;91;22192;-80
2022/08/24 01:03:43;;;;;;;6.53;2.83;;;;;;;18.74;100.00;100296.80;1368038;90;21237;-80
2022/08/24 01:06:11;;;;;;;7.93;3.03;;;;;;;18.75;100.00;100303.80;1359303;91;21395;-76
2022/08/24 01:08:39;;;;;;;18.83;3.53;;;;;;;18.78;100.00;100314.11;1371027;90;21285;-79
2022/08/24 01:11:11;;;;;;;6.80;2.90;;;;;;;18.80;100.00;100314.22;1356299;90;21256;-79
2022/08/24 01:13:40;;;;;;;5.73;2.73;;;;;;;18.80;100.00;100316.91;1502172;90;22257;-79
2022/08/24 01:16:07;;;;;;;5.40;3.22;;;;;;;18.76;100.00;100315.67;1370449;90;21392;-77
2022/08/24 01:18:51;;;;;;;9.13;3.23;;;;;;;18.65;100.00;100317.58;1368010;90;21411;-77
2022/08/24 01:21:33;;;;;;;8.97;3.17;;;;;;;18.58;100.00;100315.38;1520954;90;21315;-77
2022/08/24 01:24:03;;;;;;;5.77;2.43;;;;;;;18.57;100.00;100316.42;1530696;88;22151;-80
2022/08/24 01:26:46;;;;;;;4.08;2.62;;;;;;;18.55;100.00;100313.11;1379982;90;21277;-79
2022/08/24 01:29:17;;;;;;;5.50;2.43;;;;;;;18.49;100.00;100322.27;1375009;88;21247;-77
2022/08/24 01:31:43;;;;;;;8.63;3.03;;;;;;;18.47;100.00;100335.06;1502274;91;21377;-79
2022/08/24 01:34:11;;;;;;;6.03;2.70;;;;;;;18.51;100.00;100331.97;1376654;88;21364;-79
2022/08/24 01:36:47;;;;;;;4.43;2.70;;;;;;;18.52;100.00;100331.75;1373211;91;21312;-80
2022/08/24 01:39:19;;;;;;;8.67;2.67;;;;;;;18.54;100.00;100333.73;1532531;88;21284;-80
2022/08/24 01:41:50;;;;;;;9.97;4.40;;;;;;;18.58;100.00;100329.60;1408706;88;21506;-78
2022/08/24 01:44:15;;;;;;;6.00;2.77;;;;;;;18.58;100.00;100328.78;1378183;90;22150;-79
2022/08/24 01:46:47;;;;;;;3.97;2.77;;;;;;;18.58;100.00;100326.92;1461706;88;21448;-79
2022/08/24 01:49:15;;;;;;;7.90;2.50;;;;;;;18.59;100.00;100325.91;1466982;88;21302;-79
2022/08/24 01:51:44;;;;;;;7.30;2.70;;;;;;;18.62;100.00;100323.34;1464591;88;21359;-79
2022/08/24 01:54:11;;;;;;;7.13;2.50;;;;;;;18.63;100.00;100324.98;1453844;88;21462;-78
2022/08/24 01:56:37;;;;;;;6.43;2.77;;;;;;;18.65;100.00;100324.28;1461450;88;21441;-78
2022/08/24 01:59:05;;;;;;;9.00;3.40;;;;;;;18.66;100.00;100321.38;1467675;88;22203;-78
2022/08/24 02:01:37;;;;;;;7.17;2.97;;;;;;;18.69;100.00;100323.66;1465441;88;21388;-79
2022/08/24 02:04:07;;;;;;;12.17;3.73;;;;;;;18.71;100.00;100327.48;1438873;90;21602;-79
2022/08/24 02:06:33;;;;;;;5.12;3.17;;;;;;;18.71;100.00;100325.63;1434786;88;21491;-78
2022/08/24 02:09:00;;;;;;;7.53;3.10;;;;;;;18.68;100.00;100322.53;1451385;88;21653;-78
2022/08/24 02:11:28;;;;;;;6.27;3.10;;;;;;;18.66;100.00;100312.52;1458383;88;21409;-78
2022/08/24 02:13:54;;;;;;;8.53;3.53;;;;;;;18.65;100.00;100308.20;1464196;88;22297;-79
2022/08/24 02:16:21;;;;;;;4.90;3.50;;;;;;;18.64;100.00;100309.20;1452283;88;21418;-77
2022/08/24 02:18:48;;;;;;;4.77;3.40;;;;;;;18.61;100.00;100314.45;1455877;88;21593;-78
2022/08/24 02:21:15;;;;;;;20.23;4.70;;;;;;;18.60;100.00;100317.36;1463189;88;21469;-78
2022/08/24 02:23:43;;;;;;;6.47;3.17;;;;;;;18.60;100.00;100316.02;1451532;88;21402;-79
2022/08/24 02:26:11;;;;;;;7.23;3.03;;;;;;;18.60;100.00;100317.36;1465757;88;22101;-79
2022/08/24 02:28:39;;;;;;;5.27;3.47;;;;;;;18.58;100.00;100309.50;1443789;88;21366;-79
2022/08/24 02:31:10;;;;;;;5.57;3.13;;;;;;;18.56;100.00;100302.69;1447160;88;21395;-79
2022/08/24 02:33:38;;;;;;;11.97;3.73;;;;;;;18.56;100.00;100304.88;1430158;88;21498;-77
2022/08/24 02:36:07;;;;;;;4.07;2.97;;;;;;;18.58;100.00;100306.00;1446170;88;21324;-79
2022/08/24 02:38:35;;;;;;;6.80;3.33;;;;;;;18.61;100.00;100300.23;1469950;88;21394;-77
2022/08/24 02:41:02;;;;;;;7.17;3.57;;;;;;;18.64;100.00;100298.48;1450224;88;22575;-79
2022/08/24 02:43:29;;;;;;;6.43;3.00;;;;;;;18.65;100.00;100302.84;1452020;88;22386;-80
2022/08/24 02:45:56;;;;;;;6.30;3.87;;;;;;;18.66;100.00;100299.12;1448422;88;21476;-80
2022/08/24 02:48:24;;;;;;;11.97;3.43;;;;;;;18.66;100.00;100304.48;1457572;88;21373;-79
2022/08/24 02:50:52;;;;;;;10.00;4.07;;;;;;;18.65;100.00;100288.09;1450290;88;21417;-79
2022/08/24 02:53:21;;;;;;;10.97;3.93;;;;;;;18.62;100.00;100284.48;1441803;88;21551;-76
2022/08/24 02:55:49;;;;;;;5.10;3.30;;;;;;;18.51;100.00;100278.38;1444233;88;21672;-78
2022/08/24 02:58:17;;;;;;;6.20;3.97;;;;;;;18.40;100.00;100272.56;1445822;88;21564;-79
2022/08/24 03:00:46;;;;;;;6.27;3.27;;;;;;;18.35;100.00;100276.36;1446014;88;21309;-78
2022/08/24 03:03:14;;;;;;;7.50;3.67;;;;;;;18.31;100.00;100271.11;1444876;88;22320;-81
2022/08/24 03:05:41;;;;;;;9.93;3.77;;;;;;;18.30;100.00;100261.44;1455761;88;21343;-80
2022/08/24 03:08:08;;;;;;;6.60;3.50;;;;;;;18.33;100.00;100271.74;1462009;88;21395;-79
2022/08/24 03:10:35;;;;;;;11.23;3.70;;;;;;;18.34;100.00;100265.34;1455466;88;21499;-79
2022/08/24 03:13:03;;;;;;;7.60;2.90;;;;;;;18.27;100.00;100257.82;1451278;88;21499;-80
2022/08/24 03:15:30;;;;;;;9.00;3.67;;;;;;;18.19;100.00;100247.28;1450821;88;21292;-78
2022/08/24 03:17:57;;;;;;;7.60;3.97;;;;;;;18.17;100.00;100243.45;1445206;88;21425;-79
2022/08/24 03:20:24;;;;;;;11.00;4.27;;;;;;;18.14;100.00;100241.70;1443501;88;21366;-77
2022/08/24 03:22:52;;;;;;;8.83;4.03;;;;;;;18.09;100.00;100232.09;1448653;88;22393;-80
2022/08/24 03:25:23;;;;;;;11.70;3.87;;;;;;;18.06;100.00;100229.30;1444622;88;22260;-80
2022/08/24 03:27:51;;;;;;;5.70;3.33;;;;;;;18.11;100.00;100239.42;1448926;88;22333;-81
2022/08/24 03:30:19;;;;;;;8.60;3.60;;;;;;;18.15;100.00;100246.02;1451640;88;22354;-80
2022/08/24 03:32:47;;;;;;;3.90;3.10;;;;;;;18.19;100.00;100249.97;1454321;88;21402;-80
2022/08/24 03:35:15;;;;;;;5.67;3.43;;;;;;;18.22;100.00;100250.37;1453056;88;21551;-81
2022/08/24 03:37:43;;;;;;;6.30;3.20;;;;;;;18.21;100.00;100251.91;1459861;88;21611;-79
2022/08/24 03:40:11;;;;;;;8.97;4.00;;;;;;;18.16;100.00;100244.49;1456662;88;21536;-80
2022/08/24 03:42:39;;;;;;;7.03;3.40;;;;;;;18.10;100.00;100247.16;1458375;88;21433;-78
2022/08/24 03:45:08;;;;;;;7.60;4.13;;;;;;;18.08;100.00;100251.36;1454266;88;21470;-80
2022/08/24 03:47:36;;;;;;;15.75;3.50;;;;;;;18.10;100.00;100248.50;1459258;88;21417;-79
2022/08/24 03:50:06;;;;;;;6.27;3.17;;;;;;;18.11;100.00;100250.14;1454859;88;22312;-79
2022/08/24 03:52:34;;;;;;;10.13;3.43;;;;;;;18.14;100.00;100249.73;1444084;88;21573;-80
2022/08/24 03:55:04;;;;;;;4.60;3.23;;;;;;;18.13;100.00;100242.22;1462143;88;21932;-80
2022/08/24 03:57:32;;;;;;;4.15;3.58;;;;;;;18.13;100.00;100237.37;1449740;88;21388;-78
2022/08/24 03:59:59;;;;;;;6.90;2.97;;;;;;;18.14;100.00;100243.03;1460478;88;21373;-79
2022/08/24 04:02:26;;;;;;;6.17;3.40;;;;;;;18.13;100.00;100245.41;1448752;88;21410;-81
2022/08/24 04:04:53;;;;;;;6.60;3.37;;;;;;;18.12;100.00;100251.78;1455119;88;22937;-80
2022/08/24 04:07:20;;;;;;;3.67;3.20;;;;;;;18.17;100.00;100261.37;1446936;88;21447;-79
2022/08/24 04:09:47;;;;;;;9.10;3.13;;;;;;;18.21;100.00;100263.95;1459646;88;21432;-80
2022/08/24 04:12:15;;;;;;;6.53;3.80;;;;;;;18.25;100.00;100268.72;1451202;88;21402;-77
2022/08/24 04:14:43;;;;;;;9.57;4.30;;;;;;;18.28;100.00;100268.84;1449058;88;21858;-77
2022/08/24 04:17:13;;;;;;;9.07;3.40;;;;;;;18.30;100.00;100272.15;1437575;88;21373;-78
2022/08/24 04:19:56;;;;;;;8.28;4.28;;;;;;;18.30;100.00;100268.13;1459163;88;22259;-79
2022/08/24 04:22:09;;;;;;;6.30;3.90;;;;;;;18.33;100.00;100278.44;1454721;88;21476;-78
2022/08/24 04:24:36;;;;;;;3.33;2.97;;;;;;;18.38;100.00;100272.45;1455212;88;21565;-79
2022/08/24 04:27:04;;;;;;;5.80;3.53;;;;;;;18.39;100.00;100274.95;1462914;88;22078;-79
2022/08/24 04:29:31;;;;;;;8.53;3.43;;;;;;;18.39;100.00;100284.33;1464676;88;21498;-77
2022/08/24 04:31:58;;;;;;;6.33;3.37;;;;;;;18.42;100.00;100290.62;1447770;88;22364;-78
2022/08/24 04:34:25;;;;;;;7.60;3.43;;;;;;;18.43;100.00;100286.90;1453996;88;22430;-79
2022/08/24 04:36:52;;;;;;;5.07;3.60;;;;;;;18.51;100.00;100295.80;1461837;88;22401;-80
2022/08/24 04:39:19;;;;;;;13.90;4.13;;;;;;;18.56;100.00;100307.56;1458609;88;21543;-78
2022/08/24 04:41:46;;;;;;;5.60;2.97;;;;;;;18.63;100.00;100304.89;1448277;90;21601;-77
2022/08/24 04:44:13;;;;;;;14.17;4.77;;;;;;;18.70;100.00;100312.41;1451368;88;21531;-79
2022/08/24 04:46:41;;;;;;;5.90;3.30;;;;;;;18.77;100.00;100317.84;1458407;88;21403;-78
2022/08/24 04:49:08;;;;;;;6.27;3.80;;;;;;;18.85;100.00;100330.53;1450685;88;21387;-79
2022/08/24 04:51:35;;;;;;;11.35;3.77;;;;;;;18.92;100.00;100335.37;1452271;88;21372;-79
2022/08/24 04:54:06;;;;;;;5.65;3.80;;;;;;;19.02;100.00;100335.48;1447142;88;21343;-80
2022/08/24 04:56:34;;;;;;;6.03;3.35;;;;;;;19.11;100.00;100339.64;1471876;88;21469;-80
2022/08/24 04:59:01;;;;;;;10.03;3.25;;;;;;;19.16;100.00;100334.45;1458808;88;21469;-79
2022/08/24 05:01:31;;;;;;;3.45;2.90;;;;;;;19.19;100.00;100339.44;1456374;88;21490;-81
2022/08/24 05:03:59;;;;;;;13.60;4.58;;;;;;;19.21;100.00;100342.72;1474923;88;22504;-82
2022/08/24 05:06:29;;;;;;;7.03;3.47;;;;;;;19.21;100.00;100343.24;1449639;88;22290;-81
2022/08/24 05:08:57;;;;;;;5.10;3.10;;;;;;;19.24;100.00;100344.17;1441111;90;21565;-81
2022/08/24 05:11:25;;;;;;;7.25;3.75;;;;;;;19.22;100.00;100343.54;1459390;88;21623;-79
2022/08/24 05:13:55;;;;;;;12.03;5.12;;;;;;;19.23;100.00;100343.34;1441732;88;21300;-81
2022/08/24 05:16:24;;;;;;;9.18;3.62;;;;;;;19.22;100.00;100343.05;1435220;88;21417;-82
2022/08/24 05:18:51;;;;;;;5.72;3.25;;;;;;;19.26;100.00;100347.48;1462411;88;21365;-82
2022/08/24 05:21:22;;;;;;;15.75;4.37;;;;;;;19.28;100.00;100347.59;1439639;88;21329;-79
2022/08/24 05:23:49;;;;;;;6.28;2.98;;;;;;;19.34;100.00;100350.78;1435763;88;22002;-80
2022/08/24 05:26:23;;;;;;;9.80;3.47;;;;;;;19.43;100.00;100343.34;1447369;88;21593;-80
2022/08/24 05:28:55;;;;;;;7.28;3.65;;;;;;;19.49;100.00;100352.42;1449853;88;22340;-81
2022/08/24 05:31:26;;;;;;;10.05;3.70;;;;;;;19.56;100.00;100355.91;1440439;88;21639;-84
2022/08/24 05:33:54;;;;;;;10.35;3.47;;;;;;;19.58;100.00;100340.43;1430320;88;21373;-83
2022/08/24 05:36:29;;;;;;;5.42;2.98;;;;;;;19.59;100.00;100344.27;1464303;88;21387;-79
2022/08/24 05:39:01;;;;;;;10.50;3.10;;;;;;;19.67;100.00;100347.78;1452309;88;21594;-79
2022/08/24 05:41:29;;;;;;;10.25;3.37;;;;;;;19.76;100.00;100352.70;1452573;88;21477;-82
2022/08/24 05:43:56;;;;;;;7.35;3.35;;;;;;;19.88;100.00;100356.09;1450875;88;21387;-81
2022/08/24 05:46:24;;;;;;;4.35;3.02;;;;;;;19.97;100.00;100357.55;1464420;88;21469;-83
2022/08/24 05:48:51;;;;;;;7.47;4.17;;;;;;;20.07;100.00;100359.25;1443871;88;21388;-83
2022/08/24 05:51:19;;;;;;;6.08;3.25;;;;;;;20.16;100.00;100361.19;1451363;88;22571;-82
2022/08/24 05:53:46;;;;;;;7.50;3.33;;;;;;;20.22;100.00;100365.19;1442171;88;22343;-82
2022/08/24 05:56:16;;;;;;;6.70;2.75;;;;;;;20.20;100.00;100367.28;1454862;88;21529;-82
2022/08/24 05:58:45;;;;;;;5.90;4.17;;;;;;;20.17;100.00;100372.23;1455242;88;21520;-83
2022/08/24 06:01:17;;;;;;;6.60;3.60;;;;;;;20.22;100.00;100371.91;1448217;88;21328;-81
2022/08/24 06:03:44;;;;;;;5.97;3.20;;;;;;;20.21;100.00;100375.64;1445729;88;21439;-80
2022/08/24 06:06:12;;;;;;;7.72;3.50;;;;;;;20.25;100.00;100367.97;1450422;88;21417;-83
2022/08/24 06:08:46;;;;;;;4.35;2.92;;;;;;;20.34;100.00;100365.87;1454394;88;21469;-79
2022/08/24 06:11:29;;;;;;;4.83;2.98;;;;;;;20.44;100.00;100367.59;1453584;88;21469;-81
2022/08/24 06:14:01;;;;;;;6.30;2.47;;;;;;;20.58;100.00;100373.25;1452266;88;22349;-83
2022/08/24 06:16:29;;;;;;;8.88;3.83;;;;;;;20.68;99.32;100368.73;1449640;88;21476;-81
2022/08/24 06:18:56;;;;;;;6.40;2.60;;;;;;;20.78;99.22;100368.28;1451317;88;21462;-81
2022/08/24 06:21:26;;;;;;;7.65;3.02;;;;;;;20.86;98.81;100373.39;1450446;88;21336;-79
2022/08/24 06:23:54;;;;;;;4.80;2.98;;;;;;;20.97;98.98;100371.34;1458471;88;21394;-82
2022/08/24 06:29:09;;;;;;;9.20;3.52;;;;;;;21.15;97.40;100376.83;1444162;88;21499;-82
2022/08/24 06:31:42;;;;;;;5.35;2.75;;;;;;;21.30;96.03;100367.08;1445654;88;21553;-81
2022/08/24 06:34:15;;;;;;;5.85;3.08;;;;;;;21.30;96.03;100367.08;1452791;88;21321;-79
2022/08/24 06:36:42;;;;;;;9.68;2.98;;;;;;;21.31;94.78;100369.25;1453185;88;22371;-84
2022/08/24 06:39:11;;;;;;;6.83;2.50;;;;;;;21.42;95.09;100376.64;1461678;88;22454;-83
2022/08/24 06:41:39;;;;;;;5.58;3.27;;;;;;;21.50;94.42;100372.33;1447683;88;22423;-84
2022/08/24 06:44:07;;;;;;;5.58;2.62;;;;;;;21.50;94.42;100372.33;1443570;88;22416;-83
2022/08/24 06:46:35;;;;;;;7.80;3.12;;;;;;;21.60;94.23;100385.28;1445856;88;21543;-85
2022/08/24 06:49:03;;;;;;;6.30;2.80;;;;;;;21.63;93.82;100381.62;1440949;88;21432;-84
2022/08/24 06:51:31;;;;;;;6.60;3.08;;;;;;;21.73;92.91;100380.31;1450951;88;21528;-84
2022/08/24 06:53:58;;;;;;;7.62;3.10;;;;;;;21.73;92.91;100380.31;1453408;88;21306;-85
2022/08/24 06:56:25;;;;;;;4.42;3.40;;;;;;;21.79;92.61;100386.16;1473922;88;21358;-86
2022/08/24 06:58:52;;;;;;;7.33;3.65;;;;;;;21.85;91.87;100379.87;1452868;88;22355;-84
2022/08/24 07:01:24;;;;;;;5.55;2.90;;;;;;;21.92;90.91;100378.45;1446976;88;21462;-86
2022/08/24 07:03:52;;;;;;;8.08;2.80;;;;;;;21.93;89.95;100374.20;1454864;88;21431;-86
2022/08/24 07:06:21;;;;;;;4.55;2.98;;;;;;;21.86;88.83;100374.24;1452777;88;21491;-85
2022/08/24 07:08:49;;;;;;;8.25;2.90;;;;;;;21.84;88.54;100373.66;1446076;88;22445;-84
2022/08/24 07:11:19;;;;;;;9.60;3.17;;;;;;;21.89;88.91;100382.41;1438451;90;22856;-84
2022/08/24 07:13:48;;;;;;;4.55;2.80;;;;;;;21.96;88.93;100379.13;1447870;88;21417;-83
2022/08/24 07:16:18;;;;;;;6.03;3.00;;;;;;;22.03;88.49;100383.91;1455491;88;21395;-86
2022/08/24 07:18:45;;;;;;;7.53;3.83;;;;;;;22.14;88.22;100377.49;1467034;88;22336;-86
2022/08/24 07:21:12;;;;;;;5.10;2.60;;;;;;;22.23;87.58;100378.33;1450514;88;21476;-86
2022/08/24 07:23:39;;;;;;;5.53;2.58;;;;;;;22.21;86.61;100379.60;1455227;88;21336;-86
2022/08/24 07:26:13;;;;;;;7.45;3.50;;;;;;;22.17;85.42;100386.47;1449904;88;21366;-85
2022/08/24 07:28:40;;;;;;;4.92;2.40;;;;;;;22.16;86.01;100383.48;1449554;88;21498;-84
2022/08/24 07:31:12;;;;;;;6.00;3.37;;;;;;;22.08;84.97;100375.98;1450221;88;21366;-81
2022/08/24 07:33:37;;;;;;;7.12;3.87;;;;;;;22.08;84.74;100375.17;1447160;88;22577;-83
2022/08/24 07:36:04;;;;;;;11.85;3.10;;;;;;;22.16;85.54;100375.41;1446608;88;21373;-84
2022/08/24 07:38:32;;;;;;;6.70;3.80;;;;;;;22.12;84.14;100375.54;1459842;88;22372;-84
2022/08/24 07:41:00;;;;;;;7.37;3.05;;;;;;;22.16;85.08;100380.80;1448287;88;21475;-83
2022/08/24 07:43:28;;;;;;;8.43;3.58;;;;;;;22.20;85.29;100382.01;1450014;88;21424;-84
2022/08/24 07:45:55;;;;;;;5.87;3.45;;;;;;;22.23;85.36;100384.25;1458027;88;21403;-84
2022/08/24 07:48:22;;;;;;;10.15;4.03;;;;;;;22.23;84.75;100382.91;1467810;88;21484;-81
2022/08/24 07:50:49;;;;;;;5.22;3.17;;;;;;;22.27;85.09;100390.33;1457514;88;21320;-84
2022/08/24 07:53:17;;;;;;;11.57;3.83;;;;;;;22.29;85.00;100395.48;1466554;88;22315;-85
2022/08/24 07:55:55;;;;;;;6.90;3.45;;;;;;;22.34;85.31;100400.20;1444634;88;22253;-85
2022/08/24 07:58:23;;;;;;;6.78;2.60;;;;;;;22.40;85.27;100408.20;1460487;88;22408;-83
2022/08/24 08:00:50;;;;;;;6.50;3.20;;;;;;;22.46;84.88;100411.88;1447804;88;21547;-86
2022/08/24 08:03:17;;;;;;;9.40;3.72;;;;;;;22.46;84.37;100417.27;1434642;89;22579;-85
2022/08/24 08:05:44;;;;;;;8.68;3.10;;;;;;;22.50;83.93;100427.92;1449733;88;22474;-86
2022/08/24 08:08:12;;;;;;;10.80;3.70;;;;;;;22.50;83.33;100428.73;1455425;88;22417;-81
2022/08/24 08:10:39;;;;;;;11.78;3.50;;;;;;;22.50;83.29;100429.27;1453011;88;21373;-83
2022/08/24 08:13:07;;;;;;;5.60;3.75;;;;;;;22.47;82.66;100432.39;1428253;88;21366;-82
2022/08/24 08:15:34;;;;;;;5.87;4.12;;;;;;;22.44;82.26;100436.39;1453102;88;21407;-83
2022/08/24 08:18:01;;;;;;;9.55;3.60;;;;;;;22.46;82.59;100438.84;1448195;88;21342;-83
2022/08/24 08:20:28;;;;;;;5.17;3.30;;;;;;;22.47;82.65;100437.28;1447814;88;21551;-80
2022/08/24 08:25:43;;;;;;;11.28;3.85;;;;;;;22.70;83.10;100442.48;1443255;88;22361;-83
2022/08/24 08:28:10;;;;;;;12.18;4.12;;;;;;;23.00;82.63;100433.63;1449622;88;21446;-83
2022/08/24 08:30:37;;;;;;;9.90;4.30;;;;;;;23.22;82.14;100430.70;1441514;88;21945;-83
2022/08/24 08:33:04;;;;;;;8.58;3.87;;;;;;;23.40;81.46;100431.15;1444075;88;21455;-83
2022/08/24 08:35:32;;;;;;;7.22;4.25;;;;;;;23.60;80.50;100428.13;1449296;89;21454;-82
2022/08/24 08:38:00;;;;;;;8.83;3.35;;;;;;;23.62;77.63;100424.64;1454676;88;21388;-82
2022/08/24 08:40:55;;;;;;;7.92;3.35;;;;;;;23.60;77.04;100429.48;1453694;88;21387;-83
2022/08/24 08:43:42;;;;;;;5.65;3.30;;;;;;;23.63;77.67;100415.50;1452781;88;21565;-82
2022/08/24 08:46:44;;;;;;;7.95;2.98;;;;;;;23.80;77.92;100415.12;1452279;88;21513;-81
2022/08/24 08:50:00;;;;;;;7.83;3.30;;;;;;;24.25;77.27;100425.28;1453742;88;21403;-82
2022/08/24 08:52:50;;;;;;;12.13;2.50;;;;;;;24.69;75.33;100425.70;1452641;88;21468;-82
2022/08/24 08:55:54;;;;;;;7.08;3.05;;;;;;;25.14;75.25;100430.33;1442528;88;21454;-82
2022/08/24 08:58:38;;;;;;;5.87;2.72;;;;;;;25.31;72.62;100427.64;1440922;88;21514;-83
2022/08/24 09:01:44;;;;;;;10.10;2.15;;;;;;;25.29;71.10;100430.30;1454473;88;21549;-83
2022/08/24 09:04:46;;;;;;;15.93;3.25;;;;;;;25.40;69.20;100434.83;1453977;88;22711;-83
2022/08/24 09:07:37;;;;;;;5.90;3.00;;;;;;;25.54;69.07;100433.44;1442299;88;21660;-83
2022/08/24 09:10:34;;;;;;;5.22;2.62;;;;;;;25.75;69.34;100435.11;1461306;88;21512;-83
2022/08/24 09:13:53;;;;;;;9.93;3.40;;;;;;;25.88;67.87;100428.03;1472316;88;22309;-82
2022/08/24 09:16:26;;;;;;;9.83;3.35;;;;;;;25.92;66.71;100428.35;1462912;88;21542;-81
2022/08/24 09:19:08;;;;;;;10.25;3.30;;;;;;;26.00;66.79;100427.93;1437301;88;21495;-82
2022/08/24 09:22:10;;;;;;;8.50;4.17;;;;;;;25.94;66.48;100425.68;1441863;88;22536;-81
2022/08/24 09:24:55;;;;;;;11.65;3.62;;;;;;;25.77;65.88;100429.73;1431572;88;22577;-81
2022/08/24 09:28:01;;;;;;;6.28;3.65;;;;;;;25.39;65.96;100432.66;1455857;88;21453;-82
2022/08/24 09:30:43;;;;;;;6.58;3.47;;;;;;;25.32;67.06;100431.17;1434490;88;21594;-81
2022/08/24 09:33:21;;;;;;;14.78;3.85;;;;;;;25.55;67.01;100431.04;1432921;88;21483;-82
2022/08/24 09:36:06;;;;;;;7.75;3.72;;;;;;;25.89;66.96;100421.53;1465787;88;21291;-83
2022/08/24 09:38:57;;;;;;;5.22;3.35;;;;;;;26.21;66.27;100422.23;1452335;88;22702;-83
2022/08/24 09:42:04;;;;;;;10.13;3.98;;;;;;;26.41;65.53;100417.07;1427213;90;22682;-81
2022/08/24 09:44:49;;;;;;;12.47;4.70;;;;;;;26.18;64.21;100421.39;1417983;91;21725;-81
2022/08/24 09:47:50;;;;;;;5.50;3.95;;;;;;;26.14;64.68;100422.44;1423900;91;21568;-81
2022/08/24 09:50:46;;;;;;;9.75;4.80;;;;;;;26.17;64.67;100415.69;1414735;92;21397;-81
2022/08/24 09:53:28;;;;;;;7.85;4.08;;;;;;;26.09;65.44;100412.87;1424804;91;21470;-82
2022/08/24 09:56:12;;;;;;;13.38;4.00;;;;;;;26.14;65.53;100403.98;1418908;91;21562;-82
2022/08/24 09:59:00;;;;;;;4.30;3.25;;;;;;;26.21;64.68;100404.09;1409759;91;22292;-82
2022/08/24 10:01:54;;;;;;;6.83;3.62;;;;;;;26.40;64.80;100399.16;1410170;91;21532;-82
2022/08/24 10:04:42;;;;;;;5.70;3.08;;;;;;;26.55;63.96;100401.26;1392936;91;22498;-81
2022/08/24 10:07:27;;;;;;;10.05;3.70;;;;;;;26.76;63.73;100395.54;1422506;91;21571;-82
2022/08/24 10:10:27;;;;;;;11.28;4.37;;;;;;;26.97;63.42;100396.55;1423044;91;22381;-83
2022/08/24 10:13:15;;;;;;;14.30;4.60;;;;;;;27.11;62.98;100404.56;1417205;91;21457;-81
2022/08/24 10:15:56;;;;;;;10.98;4.10;;;;;;;27.14;59.68;100404.05;1415979;91;22434;-82
2022/08/24 10:18:46;;;;;;;13.65;4.05;;;;;;;27.21;61.90;100395.16;1420912;88;21431;-80
2022/08/24 10:21:39;;;;;;;6.12;3.35;;;;;;;26.93;60.54;100388.63;1441938;88;21632;-82
2022/08/24 10:24:42;;;;;;;11.70;3.37;;;;;;;27.23;62.45;100391.66;1444523;88;21321;-83
2022/08/24 10:27:47;;;;;;;18.07;4.47;;;;;;;27.42;61.82;100400.24;1440633;88;21594;-82
2022/08/24 10:30:48;;;;;;;15.72;3.62;;;;;;;27.70;61.29;100381.94;1456134;88;21491;-83
2022/08/24 10:33:27;;;;;;;6.80;3.70;;;;;;;27.74;59.08;100380.89;1448338;88;21425;-86
2022/08/24 10:36:12;;;;;;;9.65;4.33;;;;;;;27.86;58.16;100384.25;1448847;88;22304;-84
2022/08/24 10:42:09;;;;;;;7.35;3.00;;;;;;;28.03;60.31;100394.95;1433472;88;22189;-84
2022/08/24 10:44:58;;;;;;;10.13;3.45;;;;;;;27.98;59.37;100389.48;1462673;88;21535;-84
2022/08/24 10:47:31;;;;;;;15.27;3.57;;;;;;;27.79;59.42;100393.16;1444405;88;21542;-81
2022/08/24 10:50:29;;;;;;;5.37;3.17;;;;;;;27.60;58.74;100392.76;1443076;89;21402;-83
2022/08/24 10:53:08;;;;;;;6.83;2.45;;;;;;;27.82;59.01;100394.84;1430804;88;22586;-82
2022/08/24 10:55:36;;;;;;;6.62;2.47;;;;;;;27.93;59.00;100392.16;1449923;88;21491;-82
2022/08/24 10:58:44;;;;;;;9.68;2.98;;;;;;;28.09;58.42;100387.09;1461423;88;22355;-84
2022/08/24 11:01:26;;;;;;;6.50;2.55;;;;;;;28.19;57.67;100391.75;1440619;88;21409;-83
2022/08/24 11:04:08;;;;;;;6.08;3.02;;;;;;;28.16;57.51;100383.57;1448272;88;21365;-84
2022/08/24 11:06:41;;;;;;;8.03;2.98;;;;;;;28.04;56.53;100382.98;1462604;88;22334;-82
2022/08/24 11:09:14;;;;;;;6.65;2.58;;;;;;;28.13;57.45;100382.74;1449784;89;21616;-82
2022/08/24 11:11:45;;;;;;;14.93;2.22;;;;;;;28.46;57.83;100390.27;1455916;88;21861;-82
2022/08/24 11:14:30;;;;;;;2.65;1.90;;;;;;;28.65;55.58;100388.66;1470141;88;21512;-83
2022/08/24 11:17:18;;;;;;;7.87;2.72;;;;;;;28.47;54.25;100381.00;1459522;88;21320;-83
2022/08/24 11:19:47;;;;;;;5.03;2.22;;;;;;;28.72;54.72;100376.17;1459729;88;22450;-83
2022/08/24 11:22:39;;;;;;;5.00;1.82;;;;;;;29.07;54.17;100378.14;1460520;88;21540;-81
2022/08/24 11:25:21;;;;;;;6.20;2.30;;;;;;;29.44;52.12;100376.50;1418090;88;22525;-82
2022/08/24 11:27:52;;;;;;;12.68;2.90;;;;;;;29.66;50.13;100374.88;1465801;88;22458;-81
2022/08/24 11:30:30;;;;;;;4.78;2.02;;;;;;;29.94;50.66;100378.05;1461207;88;21417;-83
2022/08/24 11:33:04;;;;;;;5.42;2.65;;;;;;;30.21;50.07;100378.22;1448916;88;21447;-82
2022/08/24 11:35:38;;;;;;;8.33;2.35;;;;;;;30.28;49.44;100376.86;1440285;88;22386;-83
2022/08/24 11:38:40;;;;;;;7.60;2.10;;;;;;;30.35;48.96;100376.55;1433786;88;22185;-81
2022/08/24 11:41:31;;;;;;;4.17;2.08;;;;;;;30.24;48.57;100373.59;1432319;89;21467;-82
2022/08/24 11:44:25;;;;;;;6.70;2.10;;;;;;;29.95;48.74;100374.78;1461355;88;21424;-82
2022/08/24 11:47:01;;;;;;;7.03;2.12;;;;;;;29.91;49.27;100373.16;1459817;88;22527;-82
2022/08/24 11:49:39;;;;;;;6.78;2.10;;;;;;;29.84;49.22;100383.56;1453969;90;21344;-83
2022/08/24 11:52:43;;;;;;;6.60;2.47;;;;;;;29.89;48.82;100373.45;1443966;88;21361;-81
2022/08/24 11:55:51;;;;;;;4.22;2.15;;;;;;;29.96;49.10;100369.61;1444303;88;21467;-83
2022/08/24 11:58:41;;;;;;;4.53;2.17;;;;;;;29.96;48.14;100367.69;1404273;91;21498;-84